Back to Top

Language: 

My Weather Underground Personal Weather Station Historical Data with Graphs...

Delerius Weather Station Historical Data
Daily Summary for October 21, 2017 Units:  English    Metric   Both
« Previous Day
Next Day »
Daily Weekly Monthly Yearly Custom
  High: Low: Average:
Temperature: 56.5 °F 51.1 °F 53.8 °F
Dew Point: 53.0 °F 48.7 °F 50.5 °F
Humidity: 96 % 78 % 89 %
Wind Speed: 20.0 mph 4.0 mph 12.4 mph
Wind Gust: 39.0 mph - -
Wind:- - SSW
Pressure: 29.54 in 29.23 in -
Precipitation: 0.22 in    
Historical Graphs
 
 
Tabular Data for October 21, 2017
Time Temperature Dew Point Pressure Wind Wind Speed Wind Gust Humidity Rainfall Rate (Hourly) solar Conditions
00:04 51.1 °F 48.8 °F 29.54 in SE 5.0 mph 10.0 mph 92 % 0.00 in 0 W/m2
00:09 51.1 °F 48.8 °F 29.53 in SE 6.0 mph 10.0 mph 92 % 0.00 in 0 W/m2
00:14 51.1 °F 49.1 °F 29.53 in SE 6.0 mph 10.0 mph 93 % 0.00 in 0 W/m2
00:19 51.1 °F 49.1 °F 29.53 in SE 6.0 mph 10.0 mph 93 % 0.01 in 0 W/m2
00:24 51.1 °F 49.1 °F 29.52 in SE 6.0 mph 10.0 mph 93 % 0.01 in 0 W/m2
00:29 51.1 °F 49.1 °F 29.52 in SE 6.0 mph 10.0 mph 93 % 0.01 in 0 W/m2
00:34 51.1 °F 49.4 °F 29.51 in SE 7.0 mph 11.0 mph 94 % 0.01 in 0 W/m2
00:39 51.1 °F 49.4 °F 29.51 in SE 8.0 mph 15.0 mph 94 % 0.01 in 0 W/m2
00:44 51.1 °F 49.4 °F 29.51 in SE 8.0 mph 15.0 mph 94 % 0.01 in 0 W/m2
00:49 51.3 °F 49.6 °F 29.51 in SE 9.0 mph 16.0 mph 94 % 0.01 in 0 W/m2
00:54 51.4 °F 50.1 °F 29.50 in SE 10.0 mph 20.0 mph 95 % 0.01 in 0 W/m2
00:59 51.6 °F 50.2 °F 29.50 in SE 10.0 mph 20.0 mph 95 % 0.01 in 0 W/m2
01:04 51.6 °F 50.2 °F 29.50 in SSE 9.0 mph 15.0 mph 95 % 0.01 in 0 W/m2
01:09 51.8 °F 50.4 °F 29.49 in SSE 9.0 mph 15.0 mph 95 % 0.01 in 0 W/m2
01:13 51.8 °F 50.4 °F 29.49 in SE 9.0 mph 16.0 mph 95 % 0.02 in 0 W/m2
01:18 52.0 °F 50.6 °F 29.49 in SE 10.0 mph 16.0 mph 95 % 0.02 in 0 W/m2
01:23 52.0 °F 50.6 °F 29.49 in SSE 10.0 mph 18.0 mph 95 % 0.02 in 0 W/m2
01:28 52.0 °F 50.6 °F 29.49 in SSE 9.0 mph 18.0 mph 95 % 0.02 in 0 W/m2
01:33 52.2 °F 50.8 °F 29.48 in SSE 9.0 mph 15.0 mph 95 % 0.02 in 0 W/m2
01:38 52.2 °F 50.8 °F 29.48 in SSE 9.0 mph 15.0 mph 95 % 0.02 in 0 W/m2
01:43 52.3 °F 51.0 °F 29.48 in SSE 9.0 mph 15.0 mph 95 % 0.02 in 0 W/m2
01:48 52.3 °F 51.0 °F 29.48 in SSE 8.0 mph 16.0 mph 95 % 0.02 in 0 W/m2
01:53 52.3 °F 51.0 °F 29.48 in SSE 8.0 mph 16.0 mph 95 % 0.02 in 0 W/m2
01:58 52.5 °F 51.1 °F 29.47 in SSE 8.0 mph 14.0 mph 95 % 0.02 in 0 W/m2
02:03 52.5 °F 51.1 °F 29.47 in SSE 8.0 mph 13.0 mph 95 % 0.02 in 0 W/m2
02:08 52.5 °F 51.1 °F 29.47 in SSE 8.0 mph 13.0 mph 95 % 0.02 in 0 W/m2
02:13 52.7 °F 51.3 °F 29.47 in South 7.0 mph 13.0 mph 95 % 0.02 in 0 W/m2
02:18 52.7 °F 51.3 °F 29.47 in SSE 7.0 mph 13.0 mph 95 % 0.01 in 0 W/m2
02:23 52.9 °F 51.5 °F 29.46 in SSE 8.0 mph 13.0 mph 95 % 0.00 in 0 W/m2
02:28 52.9 °F 51.5 °F 29.46 in SSE 7.0 mph 11.0 mph 95 % 0.00 in 0 W/m2
02:33 52.9 °F 51.8 °F 29.46 in SSE 7.0 mph 14.0 mph 96 % 0.00 in 0 W/m2
02:38 53.1 °F 52.0 °F 29.46 in SSE 7.0 mph 14.0 mph 96 % 0.00 in 0 W/m2
02:43 53.1 °F 52.0 °F 29.46 in South 7.0 mph 14.0 mph 96 % 0.00 in 0 W/m2
02:49 53.1 °F 52.0 °F 29.45 in SSE 7.0 mph 14.0 mph 96 % 0.00 in 0 W/m2
02:54 53.2 °F 52.1 °F 29.45 in SSE 7.0 mph 12.0 mph 96 % 0.00 in 0 W/m2
02:59 53.2 °F 52.1 °F 29.45 in SSE 7.0 mph 12.0 mph 96 % 0.00 in 0 W/m2
03:04 53.2 °F 52.1 °F 29.45 in SSE 6.0 mph 11.0 mph 96 % 0.00 in 0 W/m2
03:09 53.4 °F 52.3 °F 29.45 in SSE 6.0 mph 11.0 mph 96 % 0.00 in 0 W/m2
03:14 53.4 °F 52.3 °F 29.44 in SSE 6.0 mph 11.0 mph 96 % 0.00 in 0 W/m2
03:19 53.6 °F 52.5 °F 29.44 in SSE 5.0 mph 9.0 mph 96 % 0.00 in 0 W/m2
03:24 53.6 °F 52.5 °F 29.44 in SSE 6.0 mph 10.0 mph 96 % 0.00 in 0 W/m2
03:29 53.8 °F 52.7 °F 29.44 in SSE 5.0 mph 10.0 mph 96 % 0.00 in 0 W/m2
03:34 53.8 °F 52.7 °F 29.44 in SSE 4.0 mph 9.0 mph 96 % 0.00 in 0 W/m2
03:39 53.8 °F 52.7 °F 29.44 in SSE 5.0 mph 8.0 mph 96 % 0.00 in 0 W/m2
03:44 53.8 °F 52.7 °F 29.43 in SSE 4.0 mph 8.0 mph 96 % 0.00 in 0 W/m2
03:49 53.8 °F 52.7 °F 29.43 in SSE 5.0 mph 13.0 mph 96 % 0.00 in 0 W/m2
03:54 53.8 °F 52.7 °F 29.43 in SE 7.0 mph 14.0 mph 96 % 0.00 in 0 W/m2
03:59 53.8 °F 52.7 °F 29.42 in SSE 8.0 mph 14.0 mph 96 % 0.00 in 0 W/m2
04:00 54.0 °F 52.8 °F 29.42 in SSE 8.0 mph 14.0 mph 96 % 0.00 in 0 W/m2
04:05 54.0 °F 52.8 °F 29.43 in SSE 8.0 mph 14.0 mph 96 % 0.00 in 0 W/m2
04:10 54.0 °F 52.8 °F 29.43 in South 8.0 mph 14.0 mph 96 % 0.00 in 0 W/m2
04:15 54.0 °F 52.8 °F 29.42 in South 7.0 mph 13.0 mph 96 % 0.00 in 0 W/m2
04:20 54.0 °F 52.8 °F 29.42 in South 6.0 mph 13.0 mph 96 % 0.00 in 0 W/m2
04:21 54.1 °F 53.0 °F 29.42 in South 7.0 mph 13.0 mph 96 % 0.00 in 0 W/m2
04:25 54.1 °F 53.0 °F 29.42 in South 7.0 mph 13.0 mph 96 % 0.00 in 0 W/m2
04:26 54.1 °F 53.0 °F 29.42 in South 7.0 mph 13.0 mph 96 % 0.00 in 0 W/m2
04:27 54.1 °F 53.0 °F 29.42 in South 7.0 mph 13.0 mph 96 % 0.00 in 0 W/m2
04:32 54.1 °F 53.0 °F 29.42 in South 7.0 mph 12.0 mph 96 % 0.00 in 0 W/m2
04:37 54.3 °F 52.9 °F 29.42 in South 8.0 mph 14.0 mph 95 % 0.00 in 0 W/m2
04:42 54.3 °F 52.9 °F 29.41 in SSE 8.0 mph 14.0 mph 95 % 0.00 in 0 W/m2
04:43 54.3 °F 52.9 °F 29.41 in SSE 8.0 mph 14.0 mph 95 % 0.00 in 0 W/m2
04:53 54.3 °F 52.9 °F 29.41 in South 8.0 mph 15.0 mph 95 % 0.00 in 0 W/m2
04:58 54.3 °F 52.9 °F 29.41 in SSE 8.0 mph 15.0 mph 95 % 0.00 in 0 W/m2
05:03 54.5 °F 52.8 °F 29.41 in SSE 9.0 mph 15.0 mph 94 % 0.00 in 0 W/m2
05:08 54.5 °F 52.8 °F 29.41 in South 9.0 mph 19.0 mph 94 % 0.00 in 0 W/m2
05:13 54.7 °F 53.0 °F 29.41 in South 10.0 mph 19.0 mph 94 % 0.00 in 0 W/m2
05:18 54.7 °F 53.0 °F 29.41 in South 9.0 mph 18.0 mph 94 % 0.00 in 0 W/m2
05:23 54.7 °F 53.0 °F 29.41 in South 9.0 mph 14.0 mph 94 % 0.00 in 0 W/m2
05:28 54.7 °F 52.7 °F 29.40 in South 9.0 mph 20.0 mph 93 % 0.00 in 0 W/m2
05:33 54.9 °F 52.9 °F 29.40 in South 10.0 mph 24.0 mph 93 % 0.00 in 0 W/m2
05:38 54.9 °F 52.6 °F 29.40 in South 11.0 mph 24.0 mph 92 % 0.00 in 0 W/m2
05:43 55.0 °F 52.8 °F 29.39 in South 10.0 mph 19.0 mph 92 % 0.00 in 0 W/m2
05:48 55.0 °F 52.5 °F 29.39 in South 9.0 mph 16.0 mph 91 % 0.00 in 0 W/m2
05:53 55.0 °F 52.5 °F 29.39 in South 9.0 mph 16.0 mph 91 % 0.00 in 0 W/m2
05:58 54.9 °F 52.3 °F 29.39 in South 9.0 mph 16.0 mph 91 % 0.00 in 0 W/m2
06:03 54.9 °F 52.0 °F 29.39 in South 9.0 mph 18.0 mph 90 % 0.00 in 0 W/m2
06:08 54.9 °F 52.0 °F 29.39 in South 9.0 mph 19.0 mph 90 % 0.00 in 0 W/m2
06:13 54.7 °F 51.8 °F 29.39 in South 10.0 mph 19.0 mph 90 % 0.00 in 0 W/m2
06:18 54.7 °F 51.5 °F 29.40 in South 12.0 mph 30.0 mph 89 % 0.00 in 0 W/m2
06:23 54.7 °F 51.5 °F 29.40 in South 13.0 mph 30.0 mph 89 % 0.00 in 0 W/m2
06:28 54.7 °F 51.5 °F 29.40 in SSW 11.0 mph 21.0 mph 89 % 0.00 in 0 W/m2
06:33 54.7 °F 51.5 °F 29.41 in South 9.0 mph 18.0 mph 89 % 0.00 in 0 W/m2
06:38 54.7 °F 51.5 °F 29.41 in SSW 10.0 mph 22.0 mph 89 % 0.00 in 0 W/m2
06:43 54.5 °F 51.0 °F 29.41 in SSW 11.0 mph 27.0 mph 88 % 0.00 in 0 W/m2
06:48 54.3 °F 50.8 °F 29.40 in SSW 11.0 mph 27.0 mph 88 % 0.00 in 0 W/m2
06:53 54.3 °F 50.5 °F 29.40 in South 10.0 mph 19.0 mph 87 % 0.00 in 0 W/m2
06:58 54.1 °F 50.4 °F 29.40 in South 10.0 mph 20.0 mph 87 % 0.00 in 0 W/m2
07:03 54.0 °F 50.5 °F 29.39 in South 10.0 mph 20.0 mph 88 % 0.00 in 0 W/m2
07:08 53.8 °F 50.3 °F 29.39 in South 9.0 mph 16.0 mph 88 % 0.00 in 0 W/m2
07:13 53.6 °F 50.1 °F 29.39 in South 8.0 mph 19.0 mph 88 % 0.00 in 0 W/m2
07:18 53.4 °F 50.0 °F 29.39 in South 8.0 mph 20.0 mph 88 % 0.00 in 0 W/m2
07:23 53.4 °F 50.0 °F 29.39 in South 8.0 mph 20.0 mph 88 % 0.00 in 0 W/m2
07:28 53.2 °F 49.8 °F 29.38 in South 8.0 mph 22.0 mph 88 % 0.00 in 0 W/m2
07:33 53.2 °F 49.8 °F 29.39 in South 9.0 mph 22.0 mph 88 % 0.00 in 0 W/m2
07:38 53.2 °F 49.8 °F 29.39 in South 8.0 mph 16.0 mph 88 % 0.00 in 5 W/m2
07:43 53.2 °F 49.8 °F 29.38 in South 8.0 mph 15.0 mph 88 % 0.00 in 5 W/m2
07:48 53.2 °F 49.5 °F 29.38 in South 9.0 mph 15.0 mph 87 % 0.00 in 7 W/m2
07:53 53.2 °F 49.5 °F 29.38 in South 9.0 mph 18.0 mph 87 % 0.00 in 9 W/m2
07:58 53.2 °F 49.5 °F 29.38 in South 8.0 mph 18.0 mph 87 % 0.00 in 11 W/m2
08:03 53.2 °F 49.5 °F 29.38 in South 10.0 mph 21.0 mph 87 % 0.00 in 12 W/m2
08:08 53.4 °F 49.6 °F 29.38 in South 11.0 mph 21.0 mph 87 % 0.00 in 19 W/m2
08:13 53.6 °F 49.8 °F 29.38 in South 10.0 mph 20.0 mph 87 % 0.00 in 25 W/m2
08:18 53.6 °F 49.8 °F 29.38 in South 10.0 mph 20.0 mph 87 % 0.00 in 21 W/m2
08:23 53.8 °F 49.7 °F 29.38 in South 10.0 mph 16.0 mph 86 % 0.00 in 28 W/m2
08:28 53.8 °F 49.7 °F 29.38 in South 11.0 mph 24.0 mph 86 % 0.00 in 33 W/m2
08:33 53.8 °F 49.7 °F 29.38 in South 11.0 mph 24.0 mph 86 % 0.00 in 58 W/m2
08:38 53.8 °F 49.4 °F 29.38 in South 12.0 mph 30.0 mph 85 % 0.00 in 74 W/m2
08:43 54.0 °F 49.6 °F 29.37 in South 13.0 mph 30.0 mph 85 % 0.00 in 109 W/m2
08:49 54.0 °F 49.6 °F 29.38 in South 12.0 mph 22.0 mph 85 % 0.00 in 118 W/m2
08:53 54.1 °F 49.7 °F 29.37 in South 13.0 mph 25.0 mph 85 % 0.00 in 137 W/m2
08:58 54.3 °F 49.6 °F 29.37 in South 13.0 mph 25.0 mph 84 % 0.00 in 65 W/m2
09:03 54.3 °F 49.3 °F 29.37 in South 14.0 mph 29.0 mph 83 % 0.00 in 69 W/m2
09:09 54.3 °F 49.3 °F 29.36 in South 13.0 mph 29.0 mph 83 % 0.00 in 74 W/m2
09:14 54.3 °F 49.3 °F 29.36 in South 12.0 mph 26.0 mph 83 % 0.00 in 47 W/m2
09:19 54.3 °F 49.3 °F 29.36 in South 13.0 mph 27.0 mph 83 % 0.00 in 86 W/m2
09:24 54.3 °F 48.9 °F 29.36 in South 13.0 mph 27.0 mph 82 % 0.00 in 72 W/m2
09:29 54.3 °F 48.9 °F 29.36 in South 13.0 mph 22.0 mph 82 % 0.00 in 72 W/m2
09:34 54.7 °F 49.3 °F 29.36 in South 14.0 mph 25.0 mph 82 % 0.00 in 206 W/m2
09:39 54.7 °F 49.3 °F 29.36 in SSW 14.0 mph 25.0 mph 82 % 0.00 in 53 W/m2
09:44 54.7 °F 49.3 °F 29.36 in SSW 12.0 mph 24.0 mph 82 % 0.00 in 258 W/m2
09:49 54.7 °F 49.3 °F 29.35 in South 15.0 mph 31.0 mph 82 % 0.00 in 234 W/m2
09:54 54.9 °F 49.5 °F 29.35 in South 14.0 mph 31.0 mph 82 % 0.00 in 267 W/m2
09:59 55.0 °F 49.3 °F 29.35 in South 13.0 mph 27.0 mph 81 % 0.00 in 148 W/m2
10:04 54.9 °F 49.1 °F 29.35 in South 15.0 mph 27.0 mph 81 % 0.00 in 109 W/m2
10:09 55.0 °F 49.3 °F 29.35 in SSW 15.0 mph 27.0 mph 81 % 0.00 in 107 W/m2
10:14 55.0 °F 49.3 °F 29.35 in SSW 16.0 mph 28.0 mph 81 % 0.00 in 97 W/m2
10:19 55.0 °F 49.3 °F 29.35 in SSW 14.0 mph 28.0 mph 81 % 0.00 in 132 W/m2
10:24 55.0 °F 49.3 °F 29.35 in SSW 13.0 mph 27.0 mph 81 % 0.00 in 244 W/m2
10:29 55.2 °F 49.2 °F 29.35 in South 15.0 mph 27.0 mph 80 % 0.00 in 88 W/m2
10:34 55.2 °F 49.2 °F 29.35 in South 13.0 mph 24.0 mph 80 % 0.00 in 123 W/m2
10:39 55.2 °F 49.2 °F 29.35 in South 13.0 mph 24.0 mph 80 % 0.00 in 97 W/m2
10:44 55.2 °F 49.2 °F 29.35 in South 14.0 mph 25.0 mph 80 % 0.00 in 125 W/m2
10:49 55.4 °F 49.0 °F 29.34 in South 13.0 mph 25.0 mph 79 % 0.00 in 176 W/m2
10:54 55.6 °F 49.5 °F 29.34 in South 13.0 mph 27.0 mph 80 % 0.00 in 105 W/m2
10:59 55.6 °F 49.5 °F 29.34 in South 12.0 mph 27.0 mph 80 % 0.00 in 176 W/m2
11:04 55.6 °F 49.5 °F 29.35 in South 14.0 mph 27.0 mph 80 % 0.00 in 232 W/m2
11:09 55.8 °F 49.7 °F 29.35 in SSW 15.0 mph 27.0 mph 80 % 0.00 in 223 W/m2
11:14 55.9 °F 49.9 °F 29.34 in SSW 13.0 mph 27.0 mph 80 % 0.00 in 227 W/m2
11:19 56.3 °F 50.2 °F 29.34 in South 13.0 mph 27.0 mph 80 % 0.00 in 427 W/m2
11:24 56.5 °F 50.4 °F 29.34 in South 13.0 mph 23.0 mph 80 % 0.00 in 520 W/m2
11:29 56.1 °F 49.7 °F 29.33 in South 15.0 mph 28.0 mph 79 % 0.00 in 227 W/m2
11:34 56.3 °F 50.2 °F 29.34 in South 16.0 mph 33.0 mph 80 % 0.00 in 200 W/m2
11:39 55.8 °F 49.7 °F 29.33 in SSW 16.0 mph 33.0 mph 80 % 0.00 in 128 W/m2
11:44 55.8 °F 50.0 °F 29.33 in SSW 15.0 mph 29.0 mph 81 % 0.00 in 221 W/m2
11:49 55.9 °F 50.2 °F 29.33 in SSW 11.0 mph 24.0 mph 81 % 0.00 in 130 W/m2
11:54 55.9 °F 49.9 °F 29.33 in South 10.0 mph 21.0 mph 80 % 0.00 in 221 W/m2
11:59 56.1 °F 50.0 °F 29.33 in South 10.0 mph 21.0 mph 80 % 0.00 in 292 W/m2
12:04 56.5 °F 49.7 °F 29.33 in South 11.0 mph 25.0 mph 78 % 0.00 in 149 W/m2
12:09 56.5 °F 49.7 °F 29.33 in South 14.0 mph 27.0 mph 78 % 0.00 in 84 W/m2
12:14 55.9 °F 50.5 °F 29.33 in South 14.0 mph 27.0 mph 82 % 0.00 in 216 W/m2
12:19 55.4 °F 50.3 °F 29.33 in South 12.0 mph 24.0 mph 83 % 0.00 in 125 W/m2
12:24 55.0 °F 50.3 °F 29.33 in SSW 12.0 mph 23.0 mph 84 % 0.00 in 158 W/m2
12:29 55.0 °F 50.6 °F 29.33 in SSW 11.0 mph 22.0 mph 85 % 0.00 in 230 W/m2
12:34 55.0 °F 50.3 °F 29.33 in South 9.0 mph 18.0 mph 84 % 0.00 in 178 W/m2
12:39 55.2 °F 50.1 °F 29.33 in South 11.0 mph 21.0 mph 83 % 0.00 in 74 W/m2
12:44 55.2 °F 49.8 °F 29.33 in South 11.0 mph 21.0 mph 82 % 0.00 in 79 W/m2
12:49 55.2 °F 49.8 °F 29.33 in South 11.0 mph 22.0 mph 82 % 0.00 in 72 W/m2
12:54 55.2 °F 49.5 °F 29.33 in South 13.0 mph 26.0 mph 81 % 0.00 in 134 W/m2
12:59 55.2 °F 49.8 °F 29.33 in South 14.0 mph 26.0 mph 82 % 0.00 in 176 W/m2
13:04 55.2 °F 49.8 °F 29.33 in SSW 13.0 mph 24.0 mph 82 % 0.00 in 169 W/m2
13:09 55.6 °F 49.8 °F 29.32 in SSW 14.0 mph 26.0 mph 81 % 0.00 in 214 W/m2
13:14 55.8 °F 50.0 °F 29.32 in South 15.0 mph 33.0 mph 81 % 0.00 in 146 W/m2
13:19 55.6 °F 50.2 °F 29.32 in South 15.0 mph 33.0 mph 82 % 0.00 in 165 W/m2
13:24 55.2 °F 50.1 °F 29.32 in SSW 14.0 mph 28.0 mph 83 % 0.00 in 149 W/m2
13:29 55.0 °F 50.0 °F 29.31 in South 13.0 mph 29.0 mph 83 % 0.00 in 230 W/m2
13:34 55.0 °F 50.3 °F 29.31 in South 13.0 mph 29.0 mph 84 % 0.00 in 211 W/m2
13:39 55.0 °F 49.6 °F 29.31 in South 14.0 mph 28.0 mph 82 % 0.00 in 218 W/m2
13:40 55.0 °F 50.0 °F 29.31 in South 13.0 mph 28.0 mph 83 % 0.00 in 206 W/m2
13:45 55.2 °F 49.8 °F 29.30 in South 15.0 mph 28.0 mph 82 % 0.00 in 204 W/m2
13:50 55.6 °F 50.5 °F 29.30 in SSW 13.0 mph 25.0 mph 83 % 0.00 in 276 W/m2
13:56 55.4 °F 50.0 °F 29.30 in South 14.0 mph 26.0 mph 82 % 0.00 in 218 W/m2
14:01 55.4 °F 50.0 °F 29.30 in South 15.0 mph 26.0 mph 82 % 0.00 in 107 W/m2
14:06 55.4 °F 49.7 °F 29.29 in South 14.0 mph 28.0 mph 81 % 0.00 in 67 W/m2
14:11 55.4 °F 49.7 °F 29.29 in South 16.0 mph 28.0 mph 81 % 0.00 in 69 W/m2
14:16 55.0 °F 49.6 °F 29.29 in South 18.0 mph 38.0 mph 82 % 0.00 in 100 W/m2
14:21 54.9 °F 50.1 °F 29.29 in South 15.0 mph 38.0 mph 84 % 0.00 in 102 W/m2
14:26 54.7 °F 49.9 °F 29.28 in South 11.0 mph 21.0 mph 84 % 0.00 in 120 W/m2
14:31 54.5 °F 50.1 °F 29.28 in South 12.0 mph 23.0 mph 85 % 0.00 in 128 W/m2
14:36 54.7 °F 49.9 °F 29.28 in South 15.0 mph 29.0 mph 84 % 0.00 in 130 W/m2
14:41 54.7 °F 49.9 °F 29.28 in South 16.0 mph 29.0 mph 84 % 0.00 in 151 W/m2
14:46 54.5 °F 49.8 °F 29.28 in South 16.0 mph 28.0 mph 84 % 0.00 in 132 W/m2
14:51 54.7 °F 49.9 °F 29.27 in South 17.0 mph 28.0 mph 84 % 0.00 in 142 W/m2
14:56 54.7 °F 49.9 °F 29.27 in South 17.0 mph 31.0 mph 84 % 0.00 in 141 W/m2
15:01 54.7 °F 49.9 °F 29.27 in South 17.0 mph 34.0 mph 84 % 0.00 in 104 W/m2
15:06 54.5 °F 49.8 °F 29.27 in South 16.0 mph 34.0 mph 84 % 0.00 in 134 W/m2
15:11 54.5 °F 50.1 °F 29.27 in SSW 14.0 mph 25.0 mph 85 % 0.00 in 128 W/m2
15:16 54.3 °F 49.9 °F 29.27 in South 13.0 mph 28.0 mph 85 % 0.00 in 111 W/m2
15:21 54.3 °F 49.9 °F 29.26 in South 15.0 mph 30.0 mph 85 % 0.00 in 125 W/m2
15:26 54.5 °F 50.1 °F 29.26 in South 14.0 mph 30.0 mph 85 % 0.00 in 95 W/m2
15:34 54.3 °F 49.6 °F 29.26 in South 16.0 mph 32.0 mph 84 % 0.00 in 44 W/m2
15:39 54.3 °F 49.9 °F 29.26 in South 15.0 mph 32.0 mph 85 % 0.00 in 49 W/m2
15:44 54.3 °F 49.9 °F 29.25 in South 15.0 mph 26.0 mph 85 % 0.00 in 51 W/m2
15:49 54.1 °F 49.7 °F 29.25 in South 16.0 mph 26.0 mph 85 % 0.00 in 58 W/m2
15:54 54.0 °F 49.9 °F 29.25 in South 16.0 mph 29.0 mph 86 % 0.00 in 63 W/m2
15:59 53.8 °F 50.0 °F 29.25 in South 16.0 mph 30.0 mph 87 % 0.00 in 84 W/m2
16:04 53.8 °F 50.3 °F 29.25 in South 15.0 mph 30.0 mph 88 % 0.00 in 60 W/m2
16:09 53.6 °F 50.1 °F 29.24 in South 14.0 mph 30.0 mph 88 % 0.00 in 83 W/m2
16:14 53.4 °F 50.0 °F 29.24 in South 16.0 mph 28.0 mph 88 % 0.00 in 69 W/m2
16:19 53.4 °F 50.3 °F 29.24 in South 19.0 mph 31.0 mph 89 % 0.00 in 56 W/m2
16:24 53.4 °F 50.3 °F 29.24 in South 18.0 mph 31.0 mph 89 % 0.00 in 63 W/m2
16:29 53.2 °F 50.1 °F 29.24 in SSW 17.0 mph 31.0 mph 89 % 0.01 in 67 W/m2
16:34 53.2 °F 50.4 °F 29.23 in SSW 18.0 mph 30.0 mph 90 % 0.01 in 44 W/m2
16:39 53.2 °F 50.4 °F 29.24 in SSW 18.0 mph 34.0 mph 90 % 0.01 in 35 W/m2
16:44 53.2 °F 50.4 °F 29.23 in SSW 16.0 mph 34.0 mph 90 % 0.01 in 23 W/m2
16:49 53.1 °F 50.2 °F 29.23 in SSW 16.0 mph 36.0 mph 90 % 0.02 in 16 W/m2
16:54 52.9 °F 50.3 °F 29.24 in SSW 18.0 mph 36.0 mph 91 % 0.02 in 16 W/m2
16:59 52.9 °F 50.3 °F 29.24 in SSW 18.0 mph 32.0 mph 91 % 0.02 in 11 W/m2
17:04 52.9 °F 50.3 °F 29.23 in SSW 16.0 mph 27.0 mph 91 % 0.03 in 11 W/m2
17:09 52.7 °F 50.4 °F 29.23 in SSW 16.0 mph 26.0 mph 92 % 0.03 in 9 W/m2
17:14 52.7 °F 50.4 °F 29.23 in SSW 16.0 mph 26.0 mph 92 % 0.03 in 9 W/m2
17:19 52.9 °F 50.6 °F 29.23 in SSW 17.0 mph 28.0 mph 92 % 0.04 in 7 W/m2
17:24 52.9 °F 50.6 °F 29.24 in SSW 17.0 mph 29.0 mph 92 % 0.04 in 7 W/m2
17:25 52.9 °F 50.6 °F 29.24 in SSW 17.0 mph 29.0 mph 92 % 0.05 in 7 W/m2
17:30 52.9 °F 50.6 °F 29.24 in SSW 17.0 mph 29.0 mph 92 % 0.05 in 7 W/m2
17:35 52.9 °F 50.6 °F 29.24 in SSW 17.0 mph 27.0 mph 92 % 0.05 in 5 W/m2
17:40 52.9 °F 50.6 °F 29.24 in SSW 18.0 mph 29.0 mph 92 % 0.05 in 5 W/m2
17:45 52.9 °F 50.6 °F 29.23 in SSW 17.0 mph 30.0 mph 92 % 0.05 in 0 W/m2
17:50 52.9 °F 50.6 °F 29.23 in SSW 17.0 mph 32.0 mph 92 % 0.05 in 0 W/m2
17:55 53.1 °F 50.8 °F 29.23 in SSW 17.0 mph 32.0 mph 92 % 0.04 in 0 W/m2
18:00 53.1 °F 50.8 °F 29.23 in SSW 17.0 mph 31.0 mph 92 % 0.04 in 0 W/m2
18:05 53.1 °F 50.8 °F 29.24 in SSW 17.0 mph 31.0 mph 92 % 0.04 in 0 W/m2
18:10 53.1 °F 50.8 °F 29.24 in SSW 16.0 mph 27.0 mph 92 % 0.05 in 0 W/m2
18:15 53.1 °F 50.8 °F 29.24 in SSW 15.0 mph 27.0 mph 92 % 0.04 in 0 W/m2
18:20 53.2 °F 51.3 °F 29.24 in SW 12.0 mph 25.0 mph 93 % 0.05 in 0 W/m2
18:25 53.2 °F 51.3 °F 29.24 in SW 13.0 mph 25.0 mph 93 % 0.04 in 0 W/m2
18:30 53.2 °F 51.0 °F 29.25 in SW 13.0 mph 23.0 mph 92 % 0.04 in 0 W/m2
18:35 53.4 °F 51.2 °F 29.25 in SW 14.0 mph 24.0 mph 92 % 0.05 in 0 W/m2
18:40 53.6 °F 51.3 °F 29.25 in SW 15.0 mph 24.0 mph 92 % 0.06 in 0 W/m2
18:46 53.6 °F 51.3 °F 29.25 in SW 14.0 mph 23.0 mph 92 % 0.06 in 0 W/m2
18:51 53.6 °F 51.0 °F 29.26 in SW 14.0 mph 30.0 mph 91 % 0.06 in 0 W/m2
18:56 53.6 °F 51.0 °F 29.26 in SW 15.0 mph 30.0 mph 91 % 0.06 in 0 W/m2
19:01 53.6 °F 51.0 °F 29.27 in SW 14.0 mph 24.0 mph 91 % 0.07 in 0 W/m2
19:06 53.4 °F 51.2 °F 29.27 in SW 14.0 mph 27.0 mph 92 % 0.06 in 0 W/m2
19:11 53.6 °F 51.0 °F 29.27 in SW 17.0 mph 32.0 mph 91 % 0.06 in 0 W/m2
19:12 53.6 °F 51.0 °F 29.27 in WSW 18.0 mph 32.0 mph 91 % 0.06 in 0 W/m2
19:17 53.6 °F 50.7 °F 29.27 in WSW 20.0 mph 33.0 mph 90 % 0.07 in 0 W/m2
19:22 53.6 °F 50.7 °F 29.28 in WSW 19.0 mph 33.0 mph 90 % 0.06 in 0 W/m2
19:27 53.6 °F 50.7 °F 29.28 in WSW 19.0 mph 39.0 mph 90 % 0.06 in 0 W/m2
19:32 53.4 °F 50.6 °F 29.28 in WSW 19.0 mph 39.0 mph 90 % 0.06 in 0 W/m2
19:37 53.6 °F 50.7 °F 29.29 in WSW 19.0 mph 32.0 mph 90 % 0.06 in 0 W/m2
19:42 53.4 °F 50.9 °F 29.29 in WSW 18.0 mph 32.0 mph 91 % 0.05 in 0 W/m2
19:47 53.4 °F 50.9 °F 29.29 in WSW 17.0 mph 32.0 mph 91 % 0.04 in 0 W/m2
19:52 53.4 °F 50.9 °F 29.30 in WSW 15.0 mph 25.0 mph 91 % 0.03 in 0 W/m2
19:57 53.2 °F 51.0 °F 29.30 in West 14.0 mph 25.0 mph 92 % 0.02 in 0 W/m2
20:02 53.2 °F 51.0 °F 29.30 in West 13.0 mph 23.0 mph 92 % 0.03 in 0 W/m2
20:07 53.2 °F 51.0 °F 29.30 in WSW 14.0 mph 28.0 mph 92 % 0.02 in 0 W/m2
20:12 53.2 °F 51.0 °F 29.31 in WSW 17.0 mph 37.0 mph 92 % 0.03 in 0 W/m2
20:17 53.2 °F 50.7 °F 29.31 in WSW 19.0 mph 37.0 mph 91 % 0.02 in 0 W/m2
20:22 53.2 °F 50.7 °F 29.31 in West 19.0 mph 32.0 mph 91 % 0.02 in 0 W/m2
20:28 53.2 °F 50.7 °F 29.31 in West 18.0 mph 33.0 mph 91 % 0.02 in 0 W/m2
20:33 53.2 °F 50.7 °F 29.32 in West 19.0 mph 33.0 mph 91 % 0.02 in 0 W/m2
20:38 53.4 °F 50.9 °F 29.32 in West 20.0 mph 32.0 mph 91 % 0.02 in 0 W/m2
20:43 53.4 °F 50.9 °F 29.33 in West 19.0 mph 32.0 mph 91 % 0.02 in 0 W/m2
20:48 53.2 °F 50.7 °F 29.33 in West 17.0 mph 32.0 mph 91 % 0.02 in 0 W/m2
20:49 53.2 °F 50.7 °F 29.33 in West 17.0 mph 32.0 mph 91 % 0.02 in 0 W/m2
20:54 53.2 °F 50.7 °F 29.33 in West 17.0 mph 31.0 mph 91 % 0.02 in 0 W/m2
20:59 53.2 °F 50.7 °F 29.34 in West 18.0 mph 31.0 mph 91 % 0.01 in 0 W/m2
21:04 53.2 °F 50.7 °F 29.34 in West 16.0 mph 30.0 mph 91 % 0.01 in 0 W/m2
21:09 53.1 °F 50.5 °F 29.34 in West 16.0 mph 29.0 mph 91 % 0.00 in 0 W/m2
21:14 53.1 °F 50.5 °F 29.35 in West 17.0 mph 29.0 mph 91 % 0.01 in 0 W/m2
21:19 53.1 °F 50.5 °F 29.35 in West 16.0 mph 26.0 mph 91 % 0.01 in 0 W/m2
21:24 53.1 °F 50.5 °F 29.35 in West 14.0 mph 24.0 mph 91 % 0.01 in 0 W/m2
21:29 53.1 °F 50.5 °F 29.35 in WSW 16.0 mph 30.0 mph 91 % 0.01 in 0 W/m2
21:34 53.1 °F 50.5 °F 29.36 in West 15.0 mph 30.0 mph 91 % 0.01 in 0 W/m2
21:39 52.9 °F 50.3 °F 29.36 in West 15.0 mph 30.0 mph 91 % 0.01 in 0 W/m2
21:44 52.9 °F 50.3 °F 29.36 in West 15.0 mph 30.0 mph 91 % 0.01 in 0 W/m2
21:49 52.9 °F 50.3 °F 29.37 in West 14.0 mph 23.0 mph 91 % 0.01 in 0 W/m2
21:54 53.1 °F 50.5 °F 29.37 in West 15.0 mph 31.0 mph 91 % 0.01 in 0 W/m2
21:59 52.9 °F 50.3 °F 29.37 in West 14.0 mph 31.0 mph 91 % 0.02 in 0 W/m2
22:04 52.9 °F 50.3 °F 29.37 in West 13.0 mph 24.0 mph 91 % 0.02 in 0 W/m2
22:09 52.9 °F 50.3 °F 29.38 in West 13.0 mph 23.0 mph 91 % 0.02 in 0 W/m2
22:14 52.9 °F 50.3 °F 29.38 in West 12.0 mph 26.0 mph 91 % 0.01 in 0 W/m2
22:19 52.9 °F 50.0 °F 29.38 in West 13.0 mph 26.0 mph 90 % 0.01 in 0 W/m2
22:24 52.9 °F 50.0 °F 29.38 in West 13.0 mph 23.0 mph 90 % 0.01 in 0 W/m2
22:29 52.7 °F 49.8 °F 29.39 in West 13.0 mph 26.0 mph 90 % 0.01 in 0 W/m2
22:34 52.7 °F 49.8 °F 29.39 in West 15.0 mph 26.0 mph 90 % 0.01 in 0 W/m2
22:39 52.9 °F 49.7 °F 29.39 in West 15.0 mph 24.0 mph 89 % 0.01 in 0 W/m2
22:44 52.9 °F 49.7 °F 29.40 in West 14.0 mph 24.0 mph 89 % 0.01 in 0 W/m2
22:46 52.9 °F 49.7 °F 29.40 in West 14.0 mph 26.0 mph 89 % 0.01 in 0 W/m2
22:51 53.1 °F 49.9 °F 29.40 in West 14.0 mph 26.0 mph 89 % 0.01 in 0 W/m2
22:56 53.1 °F 49.9 °F 29.40 in West 12.0 mph 26.0 mph 89 % 0.00 in 0 W/m2
23:01 52.9 °F 49.7 °F 29.41 in West 10.0 mph 18.0 mph 89 % 0.00 in 0 W/m2
23:02 52.9 °F 49.7 °F 29.41 in West 10.0 mph 18.0 mph 89 % 0.00 in 0 W/m2
23:07 52.9 °F 49.7 °F 29.41 in West 12.0 mph 21.0 mph 89 % 0.00 in 0 W/m2
23:12 53.1 °F 49.9 °F 29.42 in West 13.0 mph 22.0 mph 89 % 0.00 in 0 W/m2
23:17 53.2 °F 50.1 °F 29.42 in West 13.0 mph 22.0 mph 89 % 0.00 in 0 W/m2
23:22 53.1 °F 50.2 °F 29.42 in West 12.0 mph 21.0 mph 90 % 0.00 in 0 W/m2
23:28 52.9 °F 50.0 °F 29.43 in West 11.0 mph 24.0 mph 90 % 0.00 in 0 W/m2
23:33 52.5 °F 49.7 °F 29.43 in West 12.0 mph 24.0 mph 90 % 0.00 in 0 W/m2
23:38 52.5 °F 49.7 °F 29.43 in West 13.0 mph 22.0 mph 90 % 0.00 in 0 W/m2
23:43 52.3 °F 49.5 °F 29.44 in West 15.0 mph 25.0 mph 90 % 0.00 in 0 W/m2
23:48 52.3 °F 49.2 °F 29.44 in West 18.0 mph 30.0 mph 89 % 0.00 in 0 W/m2
23:53 52.2 °F 49.0 °F 29.45 in West 17.0 mph 34.0 mph 89 % 0.00 in 0 W/m2
23:58 52.2 °F 48.7 °F 29.45 in West 16.0 mph 34.0 mph 88 % 0.00 in 0 W/m2
Delerius-Weather
Compliments of Weather Underground - 2.25 mb

Data updates at regular intervals.